Time;durP1;ratioP1;P1;durP2;ratioP2;P2;SDS_P1;SDS_P2;PMS_P1;PMS_P2;Temp;Humidity;BMP_temperature;BMP_pressure;BME280_temperature;BME280_humidity;BME280_pressure;Samples;Min_cycle;Max_cycle;Signal;HPM_P1;HPM_P2
2023/03/07 00:01:29;;;;;;;9.87;3.27;;;4.30;99.90;;;;;;5034320;28;20100;-62
2023/03/07 00:03:56;;;;;;;9.45;2.80;;;4.30;99.90;;;;;;5028713;28;20267;-62
2023/03/07 00:06:22;;;;;;;10.55;3.15;;;4.20;99.90;;;;;;5035048;28;20037;-62
2023/03/07 00:08:50;;;;;;;12.77;3.17;;;4.20;99.90;;;;;;5037388;28;20029;-62
2023/03/07 00:11:15;;;;;;;8.15;3.20;;;4.20;99.90;;;;;;5037279;28;20282;-62
2023/03/07 00:13:41;;;;;;;16.13;3.13;;;4.20;99.90;;;;;;5036576;28;20053;-63
2023/03/07 00:16:13;;;;;;;7.67;2.33;;;4.20;99.90;;;;;;5037417;28;20033;-63
2023/03/07 00:18:40;;;;;;;11.27;2.95;;;4.20;99.90;;;;;;5030681;28;20309;-62
2023/03/07 00:21:06;;;;;;;;;;;4.20;99.90;;;;;;5036119;28;20026;-67
2023/03/07 00:23:33;;;;;;;14.18;3.28;;;4.20;99.90;;;;;;5036848;28;19909;-63
2023/03/07 00:26:01;;;;;;;5.13;1.98;;;4.20;99.90;;;;;;5035335;28;20049;-72
2023/03/07 00:28:27;;;;;;;2.65;1.67;;;4.40;99.90;;;;;;5035505;28;20033;-62
2023/03/07 00:30:54;;;;;;;6.60;1.67;;;4.30;99.90;;;;;;5036382;28;20024;-62
2023/03/07 00:33:20;;;;;;;2.38;1.45;;;4.10;99.90;;;;;;5036284;28;20383;-62
2023/03/07 00:36:01;;;;;;;4.07;1.70;;;4.10;99.90;;;;;;5034623;28;20036;-63
2023/03/07 00:38:29;;;;;;;3.47;1.42;;;4.10;99.90;;;;;;5032569;28;20094;-62
2023/03/07 00:41:03;;;;;;;2.70;1.52;;;4.00;99.90;;;;;;5035680;28;20018;-74
2023/03/07 00:43:29;;;;;;;5.53;2.00;;;4.00;99.90;;;;;;5032200;28;20035;-62
2023/03/07 00:45:55;;;;;;;6.55;1.70;;;3.90;99.90;;;;;;5025507;28;20159;-62
2023/03/07 00:48:22;;;;;;;3.90;1.50;;;4.00;99.90;;;;;;5034756;28;20120;-68
2023/03/07 00:50:48;;;;;;;3.10;1.73;;;3.90;99.90;;;;;;5035525;28;20416;-62
2023/03/07 00:53:14;;;;;;;5.53;1.23;;;3.90;99.90;;;;;;5036926;28;20037;-62
2023/03/07 00:55:40;;;;;;;5.28;1.40;;;3.80;99.90;;;;;;5034226;28;20111;-62
2023/03/07 00:58:06;;;;;;;6.50;1.43;;;3.90;99.90;;;;;;5029692;28;20082;-63
2023/03/07 01:00:32;;;;;;;7.97;1.23;;;3.80;99.90;;;;;;5031338;28;20117;-62
2023/03/07 01:03:00;;;;;;;3.73;1.57;;;3.70;99.90;;;;;;5036887;28;20017;-62
2023/03/07 01:05:27;;;;;;;4.93;1.08;;;3.80;99.90;;;;;;5033789;28;20033;-62
2023/03/07 01:07:53;;;;;;;6.65;1.33;;;3.70;99.90;;;;;;5032007;28;20029;-62
2023/03/07 01:10:19;;;;;;;5.33;1.70;;;3.70;99.90;;;;;;5035237;28;20052;-62
2023/03/07 01:12:44;;;;;;;3.47;1.17;;;3.70;99.90;;;;;;5036152;28;20021;-62
2023/03/07 01:15:10;;;;;;;6.23;0.90;;;3.70;99.90;;;;;;5034809;28;20045;-62
2023/03/07 01:17:36;;;;;;;2.45;1.30;;;3.60;99.90;;;;;;5035237;28;20025;-63
2023/03/07 01:20:05;;;;;;;2.30;1.07;;;3.60;99.90;;;;;;5022031;28;20502;-62
2023/03/07 01:22:31;;;;;;;8.63;1.30;;;3.60;99.90;;;;;;5035807;28;20032;-62
2023/03/07 01:24:57;;;;;;;7.67;1.37;;;3.50;99.90;;;;;;5035437;28;20029;-62
2023/03/07 01:27:23;;;;;;;3.63;1.33;;;3.50;99.90;;;;;;5035615;28;20099;-63
2023/03/07 01:29:49;;;;;;;10.27;1.60;;;3.50;99.90;;;;;;5033996;28;20108;-62
2023/03/07 01:32:14;;;;;;;10.30;1.30;;;3.50;99.90;;;;;;5035618;28;20108;-62
2023/03/07 01:34:40;;;;;;;7.43;1.00;;;3.40;99.90;;;;;;5033140;28;20037;-62
2023/03/07 01:37:06;;;;;;;11.30;1.30;;;3.40;99.90;;;;;;5035145;28;20123;-62
2023/03/07 01:39:32;;;;;;;7.63;1.10;;;3.40;99.90;;;;;;5035497;28;20091;-62
2023/03/07 01:41:57;;;;;;;6.93;1.20;;;3.40;99.90;;;;;;5026449;28;20090;-62
2023/03/07 01:44:27;;;;;;;11.03;1.90;;;3.50;99.90;;;;;;5022114;28;20065;-62
2023/03/07 01:46:55;;;;;;;6.82;1.67;;;3.50;99.90;;;;;;5028955;28;20079;-62
2023/03/07 01:49:28;;;;;;;7.82;1.08;;;3.50;99.90;;;;;;5026217;28;20030;-62
2023/03/07 01:52:06;;;;;;;14.07;1.13;;;3.50;99.90;;;;;;5028238;28;20052;-62
2023/03/07 01:54:36;;;;;;;9.07;1.23;;;3.50;99.90;;;;;;5033989;28;20051;-62
2023/03/07 01:57:03;;;;;;;11.55;1.23;;;3.50;99.90;;;;;;5035850;28;20328;-72
2023/03/07 01:59:49;;;;;;;;;;;3.50;99.90;;;;;;5028187;28;20029;-62
2023/03/07 02:02:18;;;;;;;2.60;0.52;;;3.60;99.90;;;;;;5021503;28;19909;-62
2023/03/07 02:05:04;;;;;;;6.22;1.10;;;3.60;99.90;;;;;;5036056;28;20308;-62
2023/03/07 02:07:36;;;;;;;4.30;1.40;;;3.60;99.90;;;;;;5034995;28;20029;-62
2023/03/07 02:10:04;;;;;;;10.75;1.00;;;3.60;99.90;;;;;;5035358;28;20126;-62
2023/03/07 02:12:30;;;;;;;5.38;1.02;;;3.70;99.90;;;;;;5035247;28;20033;-62
2023/03/07 02:14:56;;;;;;;6.13;1.13;;;3.70;99.90;;;;;;5035818;28;20047;-62
2023/03/07 02:17:23;;;;;;;6.87;1.10;;;3.70;99.90;;;;;;5033486;28;20342;-62
2023/03/07 02:19:52;;;;;;;5.38;1.35;;;3.70;99.90;;;;;;5029487;28;20267;-62
2023/03/07 02:22:18;;;;;;;5.63;1.02;;;3.80;99.90;;;;;;5035342;28;20420;-62
2023/03/07 02:24:53;;;;;;;9.27;0.60;;;3.80;99.90;;;;;;5030792;28;20029;-73
2023/03/07 02:27:20;;;;;;;10.80;1.65;;;3.80;99.90;;;;;;5022125;28;20424;-62
2023/03/07 02:29:46;;;;;;;6.70;0.73;;;3.80;99.90;;;;;;5020942;28;20037;-62
2023/03/07 02:32:13;;;;;;;9.50;1.40;;;3.80;99.90;;;;;;5035678;28;20026;-73
2023/03/07 02:34:39;;;;;;;25.52;1.58;;;3.80;99.90;;;;;;5034644;28;20029;-62
2023/03/07 02:37:19;;;;;;;4.50;0.60;;;3.90;99.90;;;;;;5027274;28;20034;-62
2023/03/07 02:39:47;;;;;;;2.90;1.20;;;3.90;99.90;;;;;;5018006;28;20511;-72
2023/03/07 02:42:28;;;;;;;4.18;0.50;;;3.80;99.90;;;;;;5035387;28;20032;-62
2023/03/07 02:45:02;;;;;;;5.03;0.90;;;3.80;99.90;;;;;;5034659;28;20425;-62
2023/03/07 02:47:27;;;;;;;3.33;1.15;;;3.80;99.90;;;;;;5035233;28;20067;-62
2023/03/07 02:49:53;;;;;;;9.13;1.07;;;3.70;99.90;;;;;;5034723;28;20030;-62
2023/03/07 02:52:20;;;;;;;3.47;0.60;;;3.70;99.90;;;;;;5033550;28;20020;-62
2023/03/07 02:54:46;;;;;;;6.55;0.82;;;3.70;99.90;;;;;;5024595;28;20025;-62
2023/03/07 02:57:13;;;;;;;6.93;0.70;;;3.70;99.90;;;;;;5034268;28;20033;-62
2023/03/07 02:59:39;;;;;;;2.42;0.75;;;3.70;99.90;;;;;;5035309;28;20108;-62
2023/03/07 03:02:04;;;;;;;10.80;1.30;;;3.70;99.90;;;;;;5033659;28;20029;-71
2023/03/07 03:04:30;;;;;;;8.93;1.53;;;3.70;99.90;;;;;;5025604;28;20033;-62
2023/03/07 03:06:56;;;;;;;3.70;0.53;;;3.80;99.90;;;;;;5022870;28;20320;-62
2023/03/07 03:09:21;;;;;;;11.07;2.00;;;3.80;99.90;;;;;;5033812;28;20408;-62
2023/03/07 03:11:47;;;;;;;3.10;1.17;;;3.90;99.90;;;;;;5033778;28;20021;-62
2023/03/07 03:14:13;;;;;;;7.83;0.83;;;3.90;99.90;;;;;;5030353;28;20021;-62
2023/03/07 03:16:40;;;;;;;3.27;0.97;;;4.00;99.90;;;;;;5034782;28;20029;-62
2023/03/07 03:19:06;;;;;;;6.13;1.45;;;4.00;99.90;;;;;;5034700;28;20065;-62
2023/03/07 03:21:32;;;;;;;8.32;0.80;;;4.00;99.90;;;;;;5020838;28;20436;-62
2023/03/07 03:23:57;;;;;;;6.77;0.60;;;4.00;99.90;;;;;;5034805;28;20116;-62
2023/03/07 03:26:23;;;;;;;2.00;0.80;;;4.00;99.90;;;;;;5033640;28;20100;-62
2023/03/07 03:28:49;;;;;;;3.10;0.67;;;4.00;99.90;;;;;;5034603;28;20022;-72
2023/03/07 03:31:15;;;;;;;9.37;1.33;;;4.00;99.90;;;;;;5033114;28;20076;-62
2023/03/07 03:33:43;;;;;;;4.60;0.97;;;3.90;99.90;;;;;;5034608;28;20033;-62
2023/03/07 03:36:14;;;;;;;2.47;0.47;;;4.00;99.90;;;;;;5033985;28;20033;-62
2023/03/07 03:38:40;;;;;;;10.48;0.77;;;4.00;99.90;;;;;;5027401;28;20436;-62
2023/03/07 03:41:07;;;;;;;6.87;0.60;;;4.00;99.90;;;;;;5027831;28;20022;-62
2023/03/07 03:43:34;;;;;;;5.13;1.00;;;3.90;99.90;;;;;;5034352;28;20044;-62
2023/03/07 03:46:00;;;;;;;2.58;0.60;;;3.90;99.90;;;;;;5034272;28;20025;-62
2023/03/07 03:48:26;;;;;;;5.80;0.63;;;3.90;99.90;;;;;;5033851;28;20033;-62
2023/03/07 03:51:03;;;;;;;7.20;0.68;;;3.90;99.90;;;;;;5025077;28;20116;-62
2023/03/07 03:53:34;;;;;;;8.45;0.95;;;3.90;99.90;;;;;;5031005;28;20025;-63
2023/03/07 03:56:08;;;;;;;2.47;0.73;;;3.90;99.90;;;;;;5034364;28;20132;-62
2023/03/07 03:58:34;;;;;;;7.13;0.70;;;3.90;99.90;;;;;;5020029;28;20014;-62
2023/03/07 04:01:06;;;;;;;2.80;0.40;;;3.90;99.90;;;;;;5026164;28;20048;-62
2023/03/07 04:03:37;;;;;;;6.40;0.60;;;3.90;99.90;;;;;;5030495;28;20420;-62
2023/03/07 04:06:08;;;;;;;3.58;0.60;;;3.80;99.90;;;;;;5023808;28;20052;-62
2023/03/07 04:08:34;;;;;;;1.30;0.52;;;3.90;99.90;;;;;;5018931;28;20030;-62
2023/03/07 04:11:00;;;;;;;1.17;0.43;;;3.90;99.90;;;;;;5034309;28;20025;-62
2023/03/07 04:13:26;;;;;;;7.70;0.80;;;3.90;99.90;;;;;;5021038;28;20054;-62
2023/03/07 04:15:53;;;;;;;12.50;1.83;;;3.90;99.90;;;;;;5031723;28;20017;-62
2023/03/07 04:18:19;;;;;;;;;;;3.90;99.90;;;;;;5022301;28;20105;-62
2023/03/07 04:20:46;;;;;;;10.32;0.77;;;3.90;99.90;;;;;;5034177;28;19992;-62
2023/03/07 04:23:12;;;;;;;2.25;0.80;;;3.80;99.90;;;;;;5033453;28;20029;-72
2023/03/07 04:25:38;;;;;;;7.03;1.10;;;3.80;99.90;;;;;;5022213;28;20097;-62
2023/03/07 04:28:03;;;;;;;8.70;0.57;;;3.80;99.90;;;;;;5031685;28;20332;-61
2023/03/07 04:30:29;;;;;;;2.90;0.33;;;3.80;99.90;;;;;;5023652;28;20105;-62
2023/03/07 04:32:55;;;;;;;3.30;0.37;;;3.70;99.90;;;;;;5029249;28;20018;-72
2023/03/07 04:35:21;;;;;;;3.23;0.73;;;3.70;99.90;;;;;;5036020;28;20097;-62
2023/03/07 04:37:46;;;;;;;3.70;1.03;;;3.60;99.90;;;;;;5033850;28;20033;-62
2023/03/07 04:40:12;;;;;;;4.50;0.50;;;3.60;99.90;;;;;;5037231;28;20104;-62
2023/03/07 04:42:38;;;;;;;9.07;1.23;;;3.60;99.90;;;;;;5037491;28;20076;-62
2023/03/07 04:45:04;;;;;;;1.17;0.70;;;3.60;99.90;;;;;;5022982;28;20028;-62
2023/03/07 04:47:30;;;;;;;2.25;0.40;;;3.50;99.90;;;;;;5036924;28;20112;-61
2023/03/07 04:49:56;;;;;;;5.40;0.83;;;3.50;99.90;;;;;;5035699;28;20108;-66
2023/03/07 04:52:21;;;;;;;9.20;0.70;;;3.40;99.90;;;;;;5029284;28;20026;-62
2023/03/07 04:54:47;;;;;;;2.03;0.83;;;3.50;99.90;;;;;;5031759;28;20021;-62
2023/03/07 04:57:13;;;;;;;9.67;0.87;;;3.40;99.90;;;;;;5035687;28;20038;-62
2023/03/07 04:59:38;;;;;;;5.23;0.53;;;3.50;99.90;;;;;;5035722;28;20048;-63
2023/03/07 05:02:10;;;;;;;2.77;0.60;;;3.50;99.90;;;;;;5020544;28;20034;-62
2023/03/07 05:04:36;;;;;;;2.90;1.27;;;3.40;99.90;;;;;;5034867;28;20033;-62
2023/03/07 05:07:02;;;;;;;0.67;0.30;;;3.40;99.90;;;;;;5034706;28;20034;-73
2023/03/07 05:09:28;;;;;;;6.47;0.70;;;3.40;99.90;;;;;;5032092;28;20033;-63
2023/03/07 05:11:54;;;;;;;5.33;0.70;;;3.40;99.90;;;;;;5030713;28;20029;-62
2023/03/07 05:14:19;;;;;;;4.33;0.37;;;3.30;99.90;;;;;;5036066;28;20530;-62
2023/03/07 05:16:45;;;;;;;2.13;0.50;;;3.40;99.90;;;;;;5034774;28;20053;-62
2023/03/07 05:19:12;;;;;;;3.03;0.63;;;3.40;99.90;;;;;;5034189;28;20514;-62
2023/03/07 05:21:39;;;;;;;2.97;0.85;;;3.40;99.90;;;;;;5026866;28;20030;-62
2023/03/07 05:24:06;;;;;;;2.92;0.50;;;3.40;99.90;;;;;;5030197;28;20036;-75
2023/03/07 05:26:32;;;;;;;6.57;0.60;;;3.40;99.90;;;;;;5031282;28;20046;-61
2023/03/07 05:28:58;;;;;;;2.37;0.60;;;3.30;99.90;;;;;;5028353;28;20030;-61
2023/03/07 05:31:24;;;;;;;0.63;0.40;;;3.20;99.90;;;;;;5029307;28;20017;-62
2023/03/07 05:33:50;;;;;;;1.77;0.43;;;3.10;99.90;;;;;;5035452;28;20060;-62
2023/03/07 05:36:16;;;;;;;2.53;0.27;;;2.80;99.90;;;;;;5036059;28;20033;-62
2023/03/07 05:38:42;;;;;;;1.33;0.30;;;2.50;99.90;;;;;;5029887;28;20435;-62
2023/03/07 05:41:07;;;;;;;4.50;0.55;;;2.30;99.90;;;;;;5030290;28;20033;-62
2023/03/07 05:43:33;;;;;;;0.10;0.10;;;2.30;99.90;;;;;;5033757;28;20316;-72
2023/03/07 05:45:59;;;;;;;1.33;0.30;;;2.20;99.90;;;;;;5031252;28;20029;-72
2023/03/07 05:48:25;;;;;;;1.53;0.50;;;2.10;99.90;;;;;;5035815;28;20025;-62
2023/03/07 05:50:50;;;;;;;2.60;0.50;;;2.10;99.90;;;;;;5035282;28;20396;-72
2023/03/07 05:53:16;;;;;;;3.57;0.77;;;2.00;99.90;;;;;;5034844;28;20025;-72
2023/03/07 05:55:42;;;;;;;3.73;0.40;;;2.00;99.90;;;;;;5031584;28;20045;-74
2023/03/07 05:58:08;;;;;;;3.00;0.50;;;2.00;99.90;;;;;;5033866;28;20112;-72
2023/03/07 06:00:33;;;;;;;2.87;0.57;;;2.00;99.90;;;;;;5030054;28;20097;-72
2023/03/07 06:03:02;;;;;;;2.20;0.30;;;2.00;99.90;;;;;;5033369;28;20037;-72
2023/03/07 06:05:28;;;;;;;4.65;0.68;;;1.90;99.90;;;;;;5033649;28;20071;-72
2023/03/07 06:07:54;;;;;;;2.80;0.40;;;1.90;99.90;;;;;;5035274;28;20021;-71
2023/03/07 06:10:20;;;;;;;1.93;0.97;;;2.00;99.90;;;;;;5035325;28;20028;-71
2023/03/07 06:12:50;;;;;;;5.00;0.73;;;2.00;99.90;;;;;;5035900;28;20098;-72
2023/03/07 06:15:16;;;;;;;3.25;0.68;;;1.90;99.90;;;;;;5035614;28;20029;-69
2023/03/07 06:17:41;;;;;;;1.60;0.60;;;1.90;99.90;;;;;;5034429;28;20044;-71
2023/03/07 06:20:08;;;;;;;1.60;0.50;;;2.00;99.90;;;;;;5033455;28;20041;-62
2023/03/07 06:22:36;;;;;;;2.17;0.93;;;1.90;99.90;;;;;;5034812;28;20298;-62
2023/03/07 06:25:06;;;;;;;3.60;0.90;;;2.00;99.90;;;;;;5027808;28;20341;-72
2023/03/07 06:27:36;;;;;;;7.78;0.90;;;2.00;99.90;;;;;;5030857;28;20041;-62
2023/03/07 06:30:04;;;;;;;9.40;1.42;;;2.10;99.90;;;;;;5016441;28;20030;-62
2023/03/07 06:32:31;;;;;;;4.80;1.40;;;2.10;99.90;;;;;;5015316;28;20033;-71
2023/03/07 06:34:57;;;;;;;1.98;0.85;;;2.10;99.90;;;;;;5031382;28;20028;-72
2023/03/07 06:37:23;;;;;;;6.20;1.10;;;2.10;99.90;;;;;;5034911;28;20037;-72
2023/03/07 06:39:49;;;;;;;4.80;1.20;;;2.10;99.90;;;;;;5033874;28;20104;-62
2023/03/07 06:42:15;;;;;;;0.80;0.67;;;2.10;99.90;;;;;;5028391;28;20051;-62
2023/03/07 06:44:40;;;;;;;3.63;1.00;;;2.10;99.90;;;;;;5028604;28;20026;-62
2023/03/07 06:47:06;;;;;;;3.53;1.17;;;2.10;99.90;;;;;;5028926;28;20375;-62
2023/03/07 06:49:32;;;;;;;2.10;0.93;;;2.10;99.90;;;;;;5025051;28;20045;-73
2023/03/07 06:51:57;;;;;;;1.97;0.63;;;2.10;99.90;;;;;;5027063;28;20104;-62
2023/03/07 06:54:23;;;;;;;5.13;1.13;;;2.10;99.90;;;;;;5029041;28;20311;-71
2023/03/07 06:56:50;;;;;;;9.33;1.10;;;2.10;99.90;;;;;;5032713;28;20324;-61
2023/03/07 06:59:16;;;;;;;3.00;0.98;;;2.10;99.90;;;;;;5029093;28;20033;-66
2023/03/07 07:01:42;;;;;;;3.20;0.80;;;2.20;99.90;;;;;;5022499;28;20092;-72
2023/03/07 07:04:09;;;;;;;1.10;0.57;;;2.10;99.90;;;;;;5029021;28;20278;-62
2023/03/07 07:06:35;;;;;;;1.42;0.90;;;2.20;99.90;;;;;;5023239;28;20423;-71
2023/03/07 07:09:03;;;;;;;4.73;1.50;;;2.10;99.90;;;;;;5030124;28;20022;-72
2023/03/07 07:11:29;;;;;;;3.75;1.00;;;2.10;99.90;;;;;;5027364;28;20029;-71
2023/03/07 07:13:55;;;;;;;1.67;1.00;;;2.20;99.90;;;;;;5022837;28;20029;-72
2023/03/07 07:16:21;;;;;;;4.00;1.00;;;2.20;99.90;;;;;;5021561;28;20026;-72
2023/03/07 07:18:50;;;;;;;5.93;1.40;;;2.20;99.90;;;;;;5031247;28;20055;-62
2023/03/07 07:21:15;;;;;;;4.13;1.10;;;2.20;99.90;;;;;;5027925;28;20132;-72
2023/03/07 07:23:41;;;;;;;5.60;1.27;;;2.10;99.90;;;;;;5025986;28;20456;-72
2023/03/07 07:26:07;;;;;;;6.53;1.93;;;2.20;99.90;;;;;;5006195;28;20424;-72
2023/03/07 07:28:33;;;;;;;11.27;1.53;;;2.20;99.90;;;;;;5034640;28;20025;-72
2023/03/07 07:30:58;;;;;;;7.20;1.83;;;2.20;99.90;;;;;;5029954;28;20029;-62
2023/03/07 07:33:24;;;;;;;4.93;1.80;;;2.20;99.90;;;;;;5023809;28;20139;-72
2023/03/07 07:35:50;;;;;;;4.87;1.27;;;2.20;99.90;;;;;;5036034;28;20052;-72
2023/03/07 07:38:15;;;;;;;1.30;0.87;;;2.20;99.90;;;;;;5031953;28;20029;-62
2023/03/07 07:40:41;;;;;;;1.00;0.80;;;2.20;99.90;;;;;;5034650;28;20029;-72
2023/03/07 07:43:14;;;;;;;3.67;1.47;;;2.30;99.90;;;;;;5030058;28;20186;-62
2023/03/07 07:45:40;;;;;;;5.25;1.00;;;2.30;99.90;;;;;;5021588;28;20026;-72
2023/03/07 07:48:05;;;;;;;3.53;1.47;;;2.30;99.90;;;;;;5027003;28;20336;-72
2023/03/07 07:50:31;;;;;;;12.50;0.97;;;2.40;99.90;;;;;;5031060;28;20029;-72
2023/03/07 07:52:57;;;;;;;1.07;0.47;;;2.40;99.90;;;;;;5033789;28;20021;-72
2023/03/07 07:55:23;;;;;;;1.37;0.70;;;2.40;99.90;;;;;;5027476;28;20111;-72
2023/03/07 07:57:50;;;;;;;8.85;1.30;;;2.50;99.90;;;;;;5025544;28;20163;-71
2023/03/07 08:00:20;;;;;;;5.65;1.30;;;2.50;99.90;;;;;;5032196;28;20034;-72
2023/03/07 08:02:48;;;;;;;6.78;1.02;;;2.50;99.90;;;;;;5032328;28;20527;-62
2023/03/07 08:05:14;;;;;;;4.40;0.63;;;2.60;99.90;;;;;;5024388;28;20038;-71
2023/03/07 08:07:40;;;;;;;5.63;0.80;;;2.60;99.90;;;;;;5033850;28;20145;-62
2023/03/07 08:10:06;;;;;;;3.97;0.93;;;2.60;99.90;;;;;;5031058;28;20375;-71
2023/03/07 08:12:32;;;;;;;8.65;1.00;;;2.60;99.90;;;;;;5040151;28;20310;-72
2023/03/07 08:14:58;;;;;;;5.60;0.87;;;2.70;99.90;;;;;;5041428;28;20032;-62
2023/03/07 08:17:24;;;;;;;2.50;0.60;;;2.70;99.90;;;;;;5037895;28;20033;-62
2023/03/07 08:19:49;;;;;;;1.70;0.87;;;2.70;99.90;;;;;;5028657;28;20044;-72
2023/03/07 08:22:15;;;;;;;2.97;0.63;;;2.80;99.90;;;;;;5031038;28;20048;-62
2023/03/07 08:24:41;;;;;;;5.53;1.00;;;2.80;99.90;;;;;;5035963;28;20040;-62
2023/03/07 08:27:08;;;;;;;7.67;1.00;;;2.90;99.90;;;;;;5033610;28;20283;-62
2023/03/07 08:29:34;;;;;;;5.07;0.82;;;3.00;99.90;;;;;;5033547;28;20429;-72
2023/03/07 08:32:00;;;;;;;2.70;0.70;;;3.00;99.90;;;;;;5030852;28;20037;-62
2023/03/07 08:34:26;;;;;;;1.75;0.70;;;3.00;99.90;;;;;;5033020;28;20029;-63
2023/03/07 08:36:52;;;;;;;4.57;0.93;;;3.10;99.90;;;;;;5027618;28;20038;-62
2023/03/07 08:39:17;;;;;;;3.20;1.20;;;3.00;99.90;;;;;;5031068;28;20325;-62
2023/03/07 08:41:43;;;;;;;0.43;0.43;;;3.10;99.90;;;;;;5034470;28;20424;-72
2023/03/07 08:44:09;;;;;;;4.80;0.60;;;3.10;99.90;;;;;;5035922;28;20482;-62
2023/03/07 08:46:34;;;;;;;3.80;0.90;;;3.10;99.90;;;;;;5027597;28;20034;-62
2023/03/07 08:49:00;;;;;;;2.70;0.93;;;3.10;99.90;;;;;;5033887;28;20076;-73
2023/03/07 08:51:26;;;;;;;3.07;0.60;;;3.20;99.90;;;;;;5023957;28;20025;-62
2023/03/07 08:53:52;;;;;;;4.30;0.63;;;3.20;99.90;;;;;;5030941;28;20317;-62
2023/03/07 08:56:18;;;;;;;8.20;1.30;;;3.20;99.90;;;;;;5023574;28;20075;-63
2023/03/07 08:58:44;;;;;;;4.97;0.80;;;3.20;99.90;;;;;;5025336;28;20029;-73
2023/03/07 09:01:11;;;;;;;1.60;0.60;;;3.30;99.90;;;;;;5029331;28;20018;-62
2023/03/07 09:03:37;;;;;;;7.28;0.95;;;3.30;99.90;;;;;;5031060;28;20086;-62
2023/03/07 09:06:04;;;;;;;7.23;1.03;;;3.50;99.90;;;;;;5023358;28;20429;-70
2023/03/07 09:08:30;;;;;;;;;;;3.50;99.90;;;;;;5028680;28;20112;-62
2023/03/07 09:10:59;;;;;;;3.77;0.63;;;3.50;99.90;;;;;;5027502;28;20004;-71
2023/03/07 09:13:25;;;;;;;5.70;1.45;;;3.60;99.90;;;;;;4982093;28;20025;-62
2023/03/07 09:15:51;;;;;;;3.22;1.10;;;3.70;99.90;;;;;;5035991;28;20018;-62
2023/03/07 09:18:17;;;;;;;1.87;0.60;;;3.90;99.90;;;;;;5035818;28;20045;-63
2023/03/07 09:20:43;;;;;;;3.93;0.67;;;3.80;99.90;;;;;;5034870;28;20463;-62
2023/03/07 09:23:09;;;;;;;5.15;0.60;;;3.90;99.90;;;;;;5034776;28;20079;-72
2023/03/07 09:25:36;;;;;;;1.88;0.73;;;3.90;99.90;;;;;;5038863;28;20029;-73
2023/03/07 09:28:01;;;;;;;9.27;1.10;;;3.80;99.90;;;;;;5032011;28;20129;-62
2023/03/07 09:30:27;;;;;;;6.77;1.40;;;3.80;99.90;;;;;;5033269;28;20380;-63
2023/03/07 09:32:53;;;;;;;3.03;0.70;;;3.90;99.90;;;;;;5039737;28;20112;-63
2023/03/07 09:35:20;;;;;;;3.33;0.70;;;3.90;99.90;;;;;;5035759;28;20109;-63
2023/03/07 09:37:45;;;;;;;2.47;0.77;;;4.00;99.90;;;;;;5032117;28;20057;-62
2023/03/07 09:40:16;;;;;;;4.63;0.57;;;4.10;99.90;;;;;;5031291;28;20076;-72
2023/03/07 09:42:48;;;;;;;9.05;0.90;;;4.20;99.90;;;;;;5036620;28;20042;-73
2023/03/07 09:45:19;;;;;;;5.20;0.82;;;4.30;99.90;;;;;;5042917;28;20026;-62
2023/03/07 09:48:35;;;;;;;6.63;1.17;;;4.30;99.90;;;;;;5036590;28;20033;-74
2023/03/07 09:51:22;;;;;;;3.67;0.73;;;4.20;99.90;;;;;;5046058;28;20042;-63
2023/03/07 09:53:53;;;;;;;1.90;0.75;;;4.10;99.90;;;;;;5043581;28;20032;-62
2023/03/07 09:56:40;;;;;;;3.03;0.70;;;4.20;99.90;;;;;;5034267;28;20212;-62
2023/03/07 09:59:08;;;;;;;;;;;4.20;99.90;;;;;;5052114;28;20025;-62
2023/03/07 10:01:36;;;;;;;2.25;0.80;;;4.10;99.90;;;;;;5054366;28;19916;-73
2023/03/07 10:04:05;;;;;;;9.55;1.02;;;4.10;99.90;;;;;;5053838;28;20459;-62
2023/03/07 10:06:39;;;;;;;4.85;0.93;;;4.00;99.90;;;;;;5054473;28;20455;-62
2023/03/07 10:09:17;;;;;;;1.35;0.90;;;4.00;99.90;;;;;;5041831;28;20078;-73
2023/03/07 10:12:20;;;;;;;6.15;0.50;;;3.60;99.90;;;;;;5059206;28;20364;-62
2023/03/07 10:15:16;;;;;;;3.85;0.70;;;3.30;99.90;;;;;;5043865;28;20044;-62
2023/03/07 10:17:47;;;;;;;11.40;1.33;;;3.10;99.90;;;;;;5048918;28;20309;-62
2023/03/07 10:20:21;;;;;;;0.95;0.55;;;2.70;99.90;;;;;;5051327;28;20034;-62
2023/03/07 10:22:58;;;;;;;5.13;0.90;;;2.60;99.90;;;;;;5043597;28;20165;-62
2023/03/07 10:25:24;;;;;;;;;;;2.60;99.90;;;;;;5047711;28;20024;-72
2023/03/07 10:27:57;;;;;;;8.02;1.27;;;2.70;99.90;;;;;;5028986;28;19931;-62
2023/03/07 10:30:23;;;;;;;6.05;1.20;;;2.70;99.90;;;;;;5036850;28;20034;-73
2023/03/07 10:32:54;;;;;;;1.17;0.60;;;2.70;99.90;;;;;;5029236;28;20030;-73
2023/03/07 10:35:44;;;;;;;2.17;0.85;;;2.80;99.90;;;;;;5031045;28;20017;-62
2023/03/07 10:38:48;;;;;;;0.95;0.73;;;3.10;99.90;;;;;;5038853;28;20037;-62
2023/03/07 10:41:20;;;;;;;1.10;0.60;;;3.30;99.90;;;;;;5012782;28;20034;-76
2023/03/07 10:43:48;;;;;;;7.70;0.93;;;3.40;99.90;;;;;;5030132;28;20044;-62
2023/03/07 10:46:22;;;;;;;2.83;0.90;;;3.40;99.90;;;;;;5036083;28;20152;-62
2023/03/07 10:48:52;;;;;;;2.83;0.90;;;3.40;99.90;;;;;;5037917;28;20032;-63
2023/03/07 10:51:35;;;;;;;3.60;0.80;;;3.50;99.90;;;;;;5047243;28;20033;-62
2023/03/07 10:54:03;;;;;;;4.88;0.70;;;3.40;99.90;;;;;;5034444;28;20037;-62
2023/03/07 10:56:29;;;;;;;1.02;0.63;;;3.40;99.90;;;;;;5034921;28;20025;-62
2023/03/07 10:59:08;;;;;;;0.53;0.53;;;3.50;99.90;;;;;;5036880;28;20037;-62
2023/03/07 11:01:36;;;;;;;2.33;1.15;;;3.50;99.90;;;;;;5031940;28;20057;-72
2023/03/07 11:04:18;;;;;;;1.85;0.65;;;3.70;99.90;;;;;;5025509;28;20032;-72
2023/03/07 11:06:59;;;;;;;3.35;0.90;;;3.60;99.90;;;;;;5031458;28;20037;-71
2023/03/07 11:09:27;;;;;;;5.47;0.93;;;3.70;99.90;;;;;;5033838;28;20013;-72
2023/03/07 11:12:04;;;;;;;2.15;0.80;;;3.70;99.90;;;;;;5032910;28;20032;-62
2023/03/07 11:14:44;;;;;;;;;;;3.80;99.90;;;;;;5033068;28;20018;-62
2023/03/07 11:17:37;;;;;;;3.45;0.50;;;3.80;99.90;;;;;;5025448;28;19912;-62
2023/03/07 11:20:18;;;;;;;4.38;0.80;;;3.70;99.90;;;;;;5032967;28;20412;-62
2023/03/07 11:22:45;;;;;;;5.57;1.10;;;3.60;99.90;;;;;;5029068;28;20029;-62
2023/03/07 11:25:24;;;;;;;5.95;0.75;;;3.40;99.90;;;;;;5023858;28;20026;-62
2023/03/07 11:27:55;;;;;;;1.55;0.55;;;3.30;99.90;;;;;;5021351;28;20051;-62
2023/03/07 11:30:33;;;;;;;3.30;0.43;;;2.80;99.90;;;;;;5020936;28;20029;-62
2023/03/07 11:33:17;;;;;;;0.82;0.40;;;2.60;99.90;;;;;;5024144;28;20620;-62
2023/03/07 11:36:02;;;;;;;0.60;0.38;;;2.30;99.90;;;;;;5027485;28;20026;-72
2023/03/07 11:38:32;;;;;;;0.38;0.30;;;2.00;99.90;;;;;;5027657;28;20033;-62
2023/03/07 11:41:15;;;;;;;2.20;0.45;;;2.00;99.90;;;;;;5034478;28;20041;-72
2023/03/07 11:43:45;;;;;;;1.65;0.60;;;2.10;99.90;;;;;;5033113;28;20027;-62
2023/03/07 11:46:36;;;;;;;2.53;0.70;;;2.20;99.90;;;;;;5036844;28;20067;-62
2023/03/07 11:49:52;;;;;;;1.38;0.30;;;2.40;99.90;;;;;;5028133;28;20041;-62
2023/03/07 11:52:26;;;;;;;0.38;0.20;;;2.60;99.90;;;;;;5038092;28;20037;-62
2023/03/07 11:55:29;;;;;;;1.42;0.55;;;2.80;99.90;;;;;;5035543;28;20098;-62
2023/03/07 11:58:25;;;;;;;4.82;0.70;;;3.00;99.90;;;;;;5032866;28;20033;-62
2023/03/07 12:00:56;;;;;;;;;;;3.10;99.90;;;;;;5041632;28;20036;-62
2023/03/07 12:03:36;;;;;;;5.72;0.63;;;3.30;99.90;;;;;;5040401;28;19919;-73
2023/03/07 12:06:20;;;;;;;7.03;0.60;;;3.50;99.90;;;;;;5038223;28;20029;-62
2023/03/07 12:09:00;;;;;;;0.65;0.65;;;3.60;99.90;;;;;;5036063;28;20073;-63
2023/03/07 12:11:54;;;;;;;6.80;2.40;;;3.70;99.90;;;;;;5035061;28;20035;-62
2023/03/07 12:14:34;;;;;;;2.22;0.60;;;3.80;99.90;;;;;;4993003;28;20033;-63
2023/03/07 12:17:24;;;;;;;2.25;0.57;;;3.90;99.90;;;;;;5034658;28;20029;-62
2023/03/07 12:20:17;;;;;;;1.40;0.82;;;4.00;99.90;;;;;;5043669;28;20119;-62
2023/03/07 12:23:03;;;;;;;6.75;0.93;;;4.10;99.90;;;;;;5033562;28;20107;-63
2023/03/07 12:25:44;;;;;;;9.07;1.50;;;4.20;99.90;;;;;;5031689;28;20039;-62
2023/03/07 12:28:22;;;;;;;3.17;0.90;;;4.20;99.90;;;;;;5031034;28;20042;-63
2023/03/07 12:31:09;;;;;;;1.90;1.00;;;4.30;99.90;;;;;;5032999;28;20033;-62
2023/03/07 12:33:58;;;;;;;6.82;1.23;;;4.40;99.90;;;;;;5027124;28;20090;-63
2023/03/07 12:36:47;;;;;;;3.88;0.75;;;4.50;99.90;;;;;;5041353;28;20021;-62
2023/03/07 12:39:48;;;;;;;3.40;0.93;;;4.60;99.90;;;;;;5040316;28;20494;-63
2023/03/07 12:42:36;;;;;;;4.72;0.95;;;4.60;99.90;;;;;;5056240;28;20029;-63
2023/03/07 12:45:20;;;;;;;6.28;1.20;;;4.60;99.90;;;;;;5057306;28;20055;-74
2023/03/07 12:48:07;;;;;;;5.15;0.77;;;4.60;99.90;;;;;;5053846;28;20075;-68
2023/03/07 12:50:58;;;;;;;10.30;3.47;;;4.70;99.90;;;;;;5033440;28;20324;-62
2023/03/07 12:53:56;;;;;;;2.83;1.05;;;4.80;99.90;;;;;;5057341;28;20416;-62
2023/03/07 12:56:34;;;;;;;5.93;1.08;;;4.80;99.90;;;;;;5039095;28;20430;-62
2023/03/07 12:59:13;;;;;;;4.80;1.15;;;4.90;99.90;;;;;;5063431;28;20036;-62
2023/03/07 13:01:58;;;;;;;1.25;0.82;;;4.80;99.90;;;;;;5058135;28;20032;-62
2023/03/07 13:04:34;;;;;;;2.70;0.70;;;4.70;99.90;;;;;;5059152;28;20051;-62
2023/03/07 13:07:12;;;;;;;3.05;0.65;;;4.60;99.90;;;;;;5050124;28;20025;-62
2023/03/07 13:09:44;;;;;;;3.88;0.77;;;4.50;99.90;;;;;;5047248;28;20099;-63
2023/03/07 13:12:15;;;;;;;3.72;1.05;;;4.40;99.90;;;;;;5056710;28;20028;-62
2023/03/07 13:14:47;;;;;;;5.18;0.80;;;4.40;99.90;;;;;;5052685;28;20025;-62